createdAt,value
2022-11-30T00:00:48.782Z,9.35
2022-11-30T00:03:23.594Z,16.73
2022-11-30T00:05:58.307Z,8.80
2022-11-30T00:08:32.745Z,7.90
2022-11-30T00:11:12.505Z,8.48
2022-11-30T00:13:49.260Z,10.45
2022-11-30T00:16:24.428Z,7.10
2022-11-30T00:18:59.414Z,6.75
2022-11-30T00:21:34.122Z,11.02
2022-11-30T00:24:09.424Z,7.03
2022-11-30T00:26:47.227Z,8.65
2022-11-30T00:29:22.797Z,8.38
2022-11-30T00:31:57.683Z,7.05
2022-11-30T00:34:32.084Z,7.68
2022-11-30T00:37:06.787Z,7.60
2022-11-30T00:39:41.520Z,6.25
2022-11-30T00:42:15.914Z,8.50
2022-11-30T00:44:52.043Z,5.93
2022-11-30T00:47:26.051Z,9.30
2022-11-30T00:52:34.047Z,7.60
2022-11-30T00:55:09.217Z,6.97
2022-11-30T00:57:43.465Z,7.75
2022-11-30T01:00:20.464Z,9.05
2022-11-30T01:02:55.681Z,8.50
2022-11-30T01:05:30.065Z,7.78
2022-11-30T01:08:06.246Z,7.82
2022-11-30T01:10:42.714Z,10.52
2022-11-30T01:13:17.364Z,6.25
2022-11-30T01:15:53.627Z,10.77
2022-11-30T01:18:28.637Z,7.03
2022-11-30T01:21:07.072Z,8.55
2022-11-30T01:23:42.460Z,6.57
2022-11-30T01:26:17.405Z,12.27
2022-11-30T01:28:52.603Z,8.27
2022-11-30T01:31:28.747Z,6.50
2022-11-30T01:34:06.074Z,7.97
2022-11-30T01:36:40.905Z,7.68
2022-11-30T01:39:15.287Z,6.45
2022-11-30T01:44:51.142Z,10.07
2022-11-30T01:47:31.855Z,8.98
2022-11-30T01:50:10.476Z,6.30
2022-11-30T01:52:47.161Z,6.78
2022-11-30T01:55:24.129Z,6.32
2022-11-30T01:58:03.344Z,6.97
2022-11-30T02:00:37.592Z,6.30
2022-11-30T02:03:23.079Z,7.75
2022-11-30T02:05:57.935Z,7.32
2022-11-30T02:08:33.071Z,6.38
2022-11-30T02:11:11.300Z,7.97
2022-11-30T02:13:59.022Z,6.18
2022-11-30T02:16:42.131Z,8.55
2022-11-30T02:19:48.250Z,8.88
2022-11-30T02:22:37.037Z,8.38
2022-11-30T02:25:19.708Z,11.77
2022-11-30T02:28:15.494Z,5.35
2022-11-30T02:30:53.384Z,10.52
2022-11-30T02:33:30.066Z,7.25
2022-11-30T02:36:06.623Z,13.23
2022-11-30T02:38:41.771Z,6.03
2022-11-30T02:41:15.783Z,5.57
2022-11-30T02:43:49.959Z,8.57
2022-11-30T02:46:32.752Z,10.88
2022-11-30T02:49:18.880Z,8.40
2022-11-30T02:51:55.486Z,13.07
2022-11-30T02:54:29.267Z,7.93
2022-11-30T02:59:40.305Z,6.70
2022-11-30T03:02:15.803Z,8.30
2022-11-30T03:04:52.627Z,6.10
2022-11-30T03:07:26.807Z,7.78
2022-11-30T03:10:01.141Z,8.48
2022-11-30T03:12:35.551Z,8.65
2022-11-30T03:15:09.956Z,8.20
2022-11-30T03:17:45.291Z,9.07
2022-11-30T03:20:19.297Z,6.57
2022-11-30T03:22:53.074Z,7.43
2022-11-30T03:28:02.241Z,7.10
2022-11-30T03:30:36.006Z,5.82
2022-11-30T03:35:44.653Z,6.82
2022-11-30T03:40:51.895Z,7.18
2022-11-30T03:45:59.213Z,7.53
2022-11-30T03:51:11.279Z,5.70
2022-11-30T03:53:45.038Z,6.82
2022-11-30T03:58:53.165Z,5.87
2022-11-30T04:01:28.228Z,6.28
2022-11-30T04:04:03.506Z,15.20
2022-11-30T04:06:37.254Z,7.07
2022-11-30T04:11:44.546Z,8.68
2022-11-30T04:16:51.783Z,4.68
2022-11-30T04:22:00.710Z,5.38
2022-11-30T04:27:08.034Z,6.93
2022-11-30T04:32:15.274Z,5.70
2022-11-30T04:37:24.183Z,4.55
2022-11-30T04:42:31.442Z,6.78
2022-11-30T04:45:05.904Z,10.32
2022-11-30T04:47:39.893Z,7.82
2022-11-30T04:50:15.068Z,6.90
2022-11-30T04:52:48.976Z,6.32
2022-11-30T04:55:22.721Z,7.75
2022-11-30T04:57:56.526Z,9.68
2022-11-30T05:00:30.277Z,7.32
2022-11-30T05:03:04.141Z,5.53
2022-11-30T05:05:39.357Z,7.07
2022-11-30T05:08:13.139Z,5.05
2022-11-30T05:13:27.614Z,8.85
2022-11-30T05:16:01.546Z,7.57
2022-11-30T05:18:35.369Z,11.40
2022-11-30T05:23:44.244Z,7.78
2022-11-30T05:28:51.460Z,8.23
2022-11-30T05:33:58.814Z,9.30
2022-11-30T05:39:07.764Z,5.25
2022-11-30T05:41:41.511Z,11.50
2022-11-30T05:46:49.071Z,6.38
2022-11-30T05:49:22.866Z,6.82
2022-11-30T05:54:31.590Z,6.55
2022-11-30T05:59:39.295Z,6.15
2022-11-30T06:04:47.021Z,5.00
2022-11-30T06:07:22.487Z,3.97
2022-11-30T06:09:56.307Z,7.60
2022-11-30T06:15:03.619Z,7.45
2022-11-30T06:22:48.242Z,9.45
2022-11-30T06:25:22.272Z,10.07
2022-11-30T06:30:29.610Z,10.80
2022-11-30T06:35:36.850Z,7.32
2022-11-30T06:40:45.626Z,5.72
2022-11-30T06:43:19.999Z,10.85
2022-11-30T06:45:54.023Z,7.35
2022-11-30T06:48:27.847Z,7.93
2022-11-30T06:53:37.454Z,10.23
2022-11-30T06:56:11.901Z,9.02
2022-11-30T06:58:45.749Z,12.30
2022-11-30T07:03:53.295Z,5.90
2022-11-30T07:06:27.188Z,8.50
2022-11-30T07:09:02.698Z,7.30
2022-11-30T07:11:36.838Z,6.22
2022-11-30T07:14:10.639Z,8.07
2022-11-30T07:19:18.754Z,6.38
2022-11-30T07:21:53.848Z,5.70
2022-11-30T07:24:47.417Z,17.55
2022-11-30T07:27:21.644Z,10.17
2022-11-30T07:29:55.636Z,8.27
2022-11-30T07:35:03.356Z,7.72
2022-11-30T07:37:37.338Z,8.65
2022-11-30T07:40:13.577Z,5.65
2022-11-30T07:42:47.470Z,6.10
2022-11-30T07:45:21.369Z,15.43
2022-11-30T07:50:29.575Z,16.20
2022-11-30T07:53:03.746Z,14.65
2022-11-30T07:55:39.056Z,15.20
2022-11-30T07:58:17.320Z,12.52
2022-11-30T08:00:51.610Z,11.50
2022-11-30T08:03:25.788Z,11.02
2022-11-30T08:06:04.256Z,10.10
2022-11-30T08:08:40.036Z,11.05
2022-11-30T08:11:18.036Z,10.90
2022-11-30T08:13:52.878Z,15.43
2022-11-30T08:16:31.119Z,12.45
2022-11-30T08:19:05.879Z,17.58
2022-11-30T08:21:42.701Z,13.07
2022-11-30T08:24:16.876Z,7.85
2022-11-30T08:26:54.038Z,7.95
2022-11-30T08:29:28.228Z,9.73
2022-11-30T08:32:02.283Z,8.55
2022-11-30T08:34:36.336Z,7.70
2022-11-30T08:37:10.248Z,7.95
2022-11-30T08:39:44.097Z,10.95
2022-11-30T08:42:19.414Z,9.23
2022-11-30T08:44:53.218Z,9.85
2022-11-30T08:50:01.132Z,8.27
2022-11-30T08:52:35.094Z,6.82
2022-11-30T08:55:10.317Z,8.55
2022-11-30T08:57:45.681Z,6.88
2022-11-30T09:00:20.356Z,9.77
2022-11-30T09:02:54.531Z,6.60
2022-11-30T09:05:28.426Z,9.18
2022-11-30T09:10:35.943Z,16.00
2022-11-30T09:15:45.142Z,9.30
2022-11-30T09:18:19.075Z,7.53
2022-11-30T09:20:53.122Z,9.23
2022-11-30T09:26:02.565Z,20.95
2022-11-30T09:28:38.954Z,8.45
2022-11-30T09:31:14.723Z,9.80
2022-11-30T09:33:49.212Z,7.57
2022-11-30T09:36:24.246Z,9.75
2022-11-30T09:38:58.507Z,11.82
2022-11-30T09:42:13.680Z,10.48
2022-11-30T09:44:58.868Z,8.88
2022-11-30T09:47:51.638Z,8.52
2022-11-30T09:50:29.347Z,9.23
2022-11-30T09:53:06.680Z,9.85
2022-11-30T09:55:43.351Z,13.07
2022-11-30T09:58:28.632Z,15.43
2022-11-30T10:01:19.929Z,12.57
2022-11-30T10:03:53.893Z,14.73
2022-11-30T10:09:26.231Z,12.05
2022-11-30T10:12:08.665Z,14.30
2022-11-30T10:15:06.668Z,14.10
2022-11-30T10:17:47.952Z,10.35
2022-11-30T10:20:49.216Z,15.75
2022-11-30T10:23:38.608Z,13.57
2022-11-30T10:26:16.194Z,13.07
2022-11-30T10:28:53.075Z,12.38
2022-11-30T10:31:34.453Z,10.18
2022-11-30T10:34:20.442Z,10.35
2022-11-30T10:37:01.400Z,16.63
2022-11-30T10:39:44.291Z,14.98
2022-11-30T10:42:26.913Z,10.45
2022-11-30T10:45:05.760Z,11.35
2022-11-30T10:47:44.762Z,10.30
2022-11-30T10:50:20.220Z,11.90
2022-11-30T10:52:57.030Z,11.02
2022-11-30T10:55:36.110Z,10.57
2022-11-30T10:58:20.989Z,11.48
2022-11-30T11:01:02.061Z,15.05
2022-11-30T11:03:36.144Z,13.18
2022-11-30T11:06:17.030Z,10.75
2022-11-30T11:08:51.670Z,12.80
2022-11-30T11:11:32.470Z,10.80
2022-11-30T11:14:22.232Z,11.35
2022-11-30T11:16:59.251Z,10.32
2022-11-30T11:19:37.179Z,11.13
2022-11-30T11:22:20.269Z,14.05
2022-11-30T11:24:57.571Z,12.38
2022-11-30T11:27:33.415Z,10.93
2022-11-30T11:30:14.000Z,16.63
2022-11-30T11:33:00.466Z,11.55
2022-11-30T11:35:37.629Z,12.13
2022-11-30T11:38:27.656Z,12.82
2022-11-30T11:41:03.706Z,14.30
2022-11-30T11:43:57.640Z,11.05
2022-11-30T11:46:33.313Z,10.82
2022-11-30T11:49:19.620Z,12.68
2022-11-30T11:52:02.115Z,10.93
2022-11-30T11:54:42.830Z,9.85
2022-11-30T11:57:19.268Z,10.30
2022-11-30T11:59:58.432Z,8.65
2022-11-30T12:02:39.430Z,10.43
2022-11-30T12:05:16.975Z,9.40
2022-11-30T12:08:01.785Z,11.00
2022-11-30T12:10:51.629Z,9.35
2022-11-30T12:13:34.010Z,8.88
2022-11-30T12:16:21.154Z,10.80
2022-11-30T12:19:00.282Z,10.35
2022-11-30T12:21:47.038Z,10.10
2022-11-30T12:24:50.079Z,8.18
2022-11-30T12:27:39.930Z,9.60
2022-11-30T12:30:22.457Z,8.65
2022-11-30T12:33:10.714Z,8.52
2022-11-30T12:35:59.884Z,9.15
2022-11-30T12:38:44.302Z,10.35
2022-11-30T12:41:33.109Z,10.38
2022-11-30T12:44:29.321Z,10.25
2022-11-30T12:47:18.688Z,8.02
2022-11-30T12:50:08.890Z,7.25
2022-11-30T12:52:50.359Z,10.93
2022-11-30T12:55:32.220Z,7.97
2022-11-30T12:58:16.361Z,7.85
2022-11-30T13:03:43.025Z,8.03
2022-11-30T13:06:20.227Z,8.57
2022-11-30T13:09:00.663Z,7.00
2022-11-30T13:11:39.181Z,9.25
2022-11-30T13:14:18.450Z,9.27
2022-11-30T13:17:02.267Z,8.27
2022-11-30T13:19:49.367Z,9.65
2022-11-30T13:22:33.135Z,8.48
2022-11-30T13:25:18.680Z,9.52
2022-11-30T13:27:58.911Z,11.02
2022-11-30T13:30:40.921Z,9.35
2022-11-30T13:33:46.638Z,10.85
2022-11-30T13:36:28.883Z,11.75
2022-11-30T13:39:26.863Z,10.20
2022-11-30T13:42:38.708Z,8.23
2022-11-30T13:45:33.600Z,24.00
2022-11-30T13:48:31.250Z,29.80
2022-11-30T13:51:07.620Z,32.10
2022-11-30T13:53:42.601Z,27.50
2022-11-30T13:56:37.068Z,22.20
2022-11-30T13:59:41.018Z,22.35
2022-11-30T14:02:54.561Z,22.75
2022-11-30T14:05:42.332Z,21.27
2022-11-30T14:08:38.262Z,21.85
2022-11-30T14:11:38.770Z,20.77
2022-11-30T14:14:45.441Z,22.40
2022-11-30T14:17:24.352Z,25.08
2022-11-30T14:20:01.926Z,21.02
2022-11-30T14:22:36.536Z,21.67
2022-11-30T14:25:17.495Z,17.55
2022-11-30T14:27:57.115Z,21.10
2022-11-30T14:30:34.036Z,20.20
2022-11-30T14:33:19.667Z,20.48
2022-11-30T14:35:58.069Z,18.30
2022-11-30T14:38:32.748Z,19.98
2022-11-30T14:41:10.346Z,18.20
2022-11-30T14:44:02.480Z,20.02
2022-11-30T14:46:36.886Z,17.45
2022-11-30T14:49:15.819Z,17.42
2022-11-30T14:51:52.270Z,14.05
2022-11-30T14:54:40.432Z,16.77
2022-11-30T14:57:26.030Z,16.48
2022-11-30T15:00:00.249Z,19.67
2022-11-30T15:02:37.552Z,17.98
2022-11-30T15:05:18.252Z,16.17
2022-11-30T15:07:52.554Z,15.75
2022-11-30T15:10:30.758Z,16.33
2022-11-30T15:13:07.089Z,16.10
2022-11-30T15:15:51.956Z,15.73
2022-11-30T15:18:27.161Z,17.55
2022-11-30T15:21:04.880Z,12.35
2022-11-30T15:23:38.857Z,20.67
2022-11-30T15:26:17.839Z,15.73
2022-11-30T15:28:57.993Z,14.77
2022-11-30T15:31:36.933Z,15.30
2022-11-30T15:34:20.807Z,13.55
2022-11-30T15:36:56.019Z,13.38
2022-11-30T15:39:32.752Z,14.63
2022-11-30T15:42:07.157Z,13.00
2022-11-30T15:44:46.928Z,11.48
2022-11-30T15:47:27.645Z,14.55
2022-11-30T15:50:01.789Z,11.68
2022-11-30T15:52:35.852Z,14.05
2022-11-30T15:55:43.723Z,17.52
2022-11-30T15:58:34.460Z,11.80
2022-11-30T16:01:12.745Z,13.60
2022-11-30T16:04:04.581Z,10.70
2022-11-30T16:06:46.458Z,12.93
2022-11-30T16:09:22.983Z,10.40
2022-11-30T16:11:59.255Z,12.27
2022-11-30T16:14:33.238Z,13.73
2022-11-30T16:17:11.710Z,15.50
2022-11-30T16:19:45.853Z,14.77
2022-11-30T16:22:20.036Z,14.40
2022-11-30T16:24:53.832Z,14.18
2022-11-30T16:30:01.222Z,10.67
2022-11-30T16:32:36.826Z,11.50
2022-11-30T16:35:22.922Z,12.57
2022-11-30T16:37:57.112Z,12.52
2022-11-30T16:40:36.936Z,13.23
2022-11-30T16:43:12.689Z,13.52
2022-11-30T16:45:47.123Z,11.00
2022-11-30T16:48:22.911Z,10.18
2022-11-30T16:50:57.006Z,18.20
2022-11-30T16:53:30.829Z,23.05
2022-11-30T16:58:38.313Z,23.23
2022-11-30T17:01:16.269Z,21.30
2022-11-30T17:03:53.256Z,14.65
2022-11-30T17:06:27.726Z,13.85
2022-11-30T17:09:01.630Z,14.43
2022-11-30T17:11:38.604Z,25.13
2022-11-30T17:14:14.352Z,27.02
2022-11-30T17:16:48.308Z,21.38
2022-11-30T17:19:23.590Z,19.63
2022-11-30T17:21:57.455Z,14.90
2022-11-30T17:24:31.526Z,19.08
2022-11-30T17:27:05.923Z,12.57
2022-11-30T17:29:40.042Z,17.95
2022-11-30T17:32:13.939Z,14.30
2022-11-30T17:34:49.827Z,14.38
2022-11-30T17:37:24.787Z,15.70
2022-11-30T17:39:59.175Z,22.58
2022-11-30T17:42:33.080Z,16.75
2022-11-30T17:45:07.984Z,14.35
2022-11-30T17:47:41.929Z,20.00
2022-11-30T17:50:17.484Z,17.10
2022-11-30T17:52:51.576Z,16.48
2022-11-30T17:55:25.483Z,23.45
2022-11-30T17:58:00.573Z,21.67
2022-11-30T18:00:34.626Z,15.52
2022-11-30T18:03:09.151Z,18.85
2022-11-30T18:05:44.744Z,15.40
2022-11-30T18:08:19.083Z,16.58
2022-11-30T18:10:52.961Z,11.68
2022-11-30T18:13:29.499Z,11.68
2022-11-30T18:16:14.379Z,25.30
2022-11-30T18:18:49.004Z,20.65
2022-11-30T18:21:25.315Z,21.50
2022-11-30T18:23:59.816Z,21.90
2022-11-30T18:26:35.669Z,35.55
2022-11-30T18:29:11.014Z,28.83
2022-11-30T18:31:44.971Z,21.65
2022-11-30T18:34:18.978Z,25.45
2022-11-30T18:36:54.360Z,14.07
2022-11-30T18:39:28.369Z,25.38
2022-11-30T18:42:02.425Z,21.20
2022-11-30T18:44:36.319Z,17.08
2022-11-30T18:49:44.347Z,18.60
2022-11-30T18:52:19.900Z,16.88
2022-11-30T18:54:53.736Z,14.40
2022-11-30T18:57:27.634Z,19.77
2022-11-30T19:02:35.798Z,12.47
2022-11-30T19:05:13.586Z,17.00
2022-11-30T19:07:49.464Z,9.82
2022-11-30T19:10:23.283Z,14.98
2022-11-30T19:15:31.668Z,31.80
2022-11-30T19:18:05.876Z,25.52
2022-11-30T19:20:40.434Z,19.92
2022-11-30T19:23:15.788Z,21.42
2022-11-30T19:25:49.733Z,17.90
2022-11-30T19:28:23.594Z,24.00
2022-11-30T19:30:57.598Z,19.05
2022-11-30T19:33:31.654Z,22.92
2022-11-30T19:36:07.527Z,20.45
2022-11-30T19:38:43.067Z,22.55
2022-11-30T19:41:17.305Z,19.77
2022-11-30T19:44:02.447Z,19.48
2022-11-30T19:46:37.383Z,22.00
2022-11-30T19:49:12.167Z,25.90
2022-11-30T19:51:46.091Z,20.95
2022-11-30T19:54:21.390Z,24.23
2022-11-30T19:56:58.025Z,20.70
2022-11-30T19:59:31.960Z,23.20
2022-11-30T20:02:05.951Z,22.55
2022-11-30T20:04:40.159Z,23.20
2022-11-30T20:07:14.980Z,21.35
2022-11-30T20:09:50.531Z,21.48
2022-11-30T20:12:24.534Z,22.95
2022-11-30T20:14:58.453Z,19.20
2022-11-30T20:17:32.244Z,25.15
2022-11-30T20:22:40.467Z,17.42
2022-11-30T20:25:15.813Z,19.00
2022-11-30T20:27:50.377Z,16.83
2022-11-30T20:30:24.388Z,17.75
2022-11-30T20:32:58.277Z,21.45
2022-11-30T20:38:05.583Z,18.17
2022-11-30T20:43:14.516Z,15.52
2022-11-30T20:45:48.465Z,19.45
2022-11-30T20:48:22.470Z,17.42
2022-11-30T20:51:28.464Z,14.80
2022-11-30T20:53:51.142Z,18.05
2022-11-30T20:56:26.713Z,18.02
2022-11-30T20:59:02.957Z,17.80
2022-11-30T21:01:37.172Z,14.93
2022-11-30T21:04:11.193Z,14.75
2022-11-30T21:06:45.900Z,13.23
2022-11-30T21:09:20.755Z,16.98
2022-11-30T21:11:56.371Z,15.90
2022-11-30T21:14:30.343Z,17.75
2022-11-30T21:17:04.192Z,14.20
2022-11-30T21:22:12.170Z,13.90
2022-11-30T21:24:46.133Z,14.57
2022-11-30T21:27:21.638Z,13.00
2022-11-30T21:29:55.527Z,23.45
2022-11-30T21:32:29.564Z,14.80
2022-11-30T21:35:03.665Z,19.42
2022-11-30T21:37:37.493Z,15.88
2022-11-30T21:42:46.948Z,13.77
2022-11-30T21:45:20.709Z,11.38
2022-11-30T21:50:28.204Z,15.67
2022-11-30T21:53:02.084Z,10.30
2022-11-30T21:55:36.719Z,12.80
2022-11-30T21:58:12.157Z,15.02
2022-11-30T22:00:46.059Z,16.02
2022-11-30T22:03:19.964Z,10.80
2022-11-30T22:06:01.356Z,14.20
2022-11-30T22:08:36.359Z,14.05
2022-11-30T22:11:12.112Z,13.75
2022-11-30T22:13:51.383Z,10.25
2022-11-30T22:16:32.585Z,10.73
2022-11-30T22:19:09.641Z,12.32
2022-11-30T22:21:49.435Z,11.98
2022-11-30T22:24:24.013Z,11.02
2022-11-30T22:26:57.825Z,10.55
2022-11-30T22:32:07.050Z,13.20
2022-11-30T22:34:40.856Z,12.02
2022-11-30T22:39:48.665Z,11.15
2022-11-30T22:42:22.822Z,16.23
2022-11-30T22:44:58.292Z,10.82
2022-11-30T22:47:32.254Z,10.75
2022-11-30T22:50:07.520Z,9.40
2022-11-30T22:53:02.406Z,10.63
2022-11-30T22:55:35.619Z,11.85
2022-11-30T22:58:09.717Z,10.02
2022-11-30T23:00:45.105Z,10.93
2022-11-30T23:03:19.089Z,9.90
2022-11-30T23:05:53.104Z,9.50
2022-11-30T23:08:27.080Z,10.55
2022-11-30T23:11:02.028Z,10.52
2022-11-30T23:13:36.411Z,11.77
2022-11-30T23:16:12.890Z,14.52
2022-11-30T23:18:49.595Z,10.32
2022-11-30T23:21:27.046Z,14.18
2022-11-30T23:24:03.569Z,11.60
2022-11-30T23:26:39.230Z,12.27
2022-11-30T23:29:14.875Z,14.82
2022-11-30T23:31:50.344Z,11.40
2022-11-30T23:34:24.303Z,13.23
2022-11-30T23:36:58.035Z,13.98
2022-11-30T23:39:31.820Z,10.80
2022-11-30T23:44:39.345Z,11.13
2022-11-30T23:49:52.426Z,8.77
2022-11-30T23:55:00.087Z,13.37
2022-11-30T23:57:34.008Z,10.00
